createdAt,value
2018-05-06T10:46:23.107Z,102583.72
2018-05-06T10:49:27.588Z,102582.08
2018-05-06T10:52:30.916Z,102572.00
2018-05-06T10:55:35.402Z,102575.61
2018-05-06T10:58:38.713Z,102574.61
2018-05-06T11:01:42.059Z,102580.81
2018-05-06T11:04:45.434Z,102581.31
2018-05-06T11:07:49.577Z,102568.22
2018-05-06T11:10:52.902Z,102569.23
2018-05-06T11:13:56.378Z,102568.03
2018-05-06T11:16:59.720Z,102567.55
2018-05-06T11:20:03.064Z,102562.34
2018-05-06T11:23:06.369Z,102563.70
2018-05-06T11:26:09.841Z,102563.09
2018-05-06T11:29:13.221Z,102572.20
2018-05-06T11:32:16.567Z,102571.16
2018-05-06T11:35:19.913Z,102567.13
2018-05-06T11:38:23.269Z,102567.52
2018-05-06T11:41:26.630Z,102564.85
2018-05-06T11:44:29.986Z,102557.66
2018-05-06T11:47:33.319Z,102554.19
2018-05-06T11:50:36.657Z,102556.27
2018-05-06T11:53:40.778Z,102561.39
2018-05-06T11:56:44.222Z,102558.13
2018-05-06T11:59:47.605Z,102560.47
2018-05-06T12:02:50.939Z,102550.05
2018-05-06T12:05:54.445Z,102551.74
2018-05-06T12:08:58.643Z,102552.09
2018-05-06T12:12:01.993Z,102545.70
2018-05-06T12:15:05.429Z,102548.98
2018-05-06T12:18:08.743Z,102546.39
2018-05-06T12:21:12.147Z,102540.61
2018-05-06T12:24:15.533Z,102540.16
2018-05-06T12:27:18.948Z,102534.08
2018-05-06T12:30:22.257Z,102533.41
2018-05-06T12:33:25.721Z,102533.96
2018-05-06T12:36:29.029Z,102526.03
2018-05-06T12:39:32.389Z,102516.75
2018-05-06T12:42:35.782Z,102519.42
2018-05-06T12:45:39.255Z,102505.55
2018-05-06T12:48:42.589Z,102509.61
2018-05-06T12:51:46.775Z,102508.52
2018-05-06T12:54:50.887Z,102502.88
2018-05-06T12:57:54.273Z,102501.94
2018-05-06T13:00:57.602Z,102500.87
2018-05-06T13:04:01.755Z,102494.87
2018-05-06T13:07:05.065Z,102486.95
2018-05-06T13:10:08.418Z,102488.70
2018-05-06T13:13:12.505Z,102488.81
2018-05-06T13:16:15.848Z,102488.51
2018-05-06T13:19:19.151Z,102489.39
2018-05-06T13:22:22.489Z,102484.13
2018-05-06T13:25:25.814Z,102483.24
2018-05-06T13:28:29.166Z,102480.17
2018-05-06T13:31:32.483Z,102481.02
2018-05-06T13:34:35.834Z,102484.49
2018-05-06T13:37:39.995Z,102471.94
2018-05-06T13:40:43.326Z,102473.25
2018-05-06T13:43:46.642Z,102474.53
2018-05-06T13:46:50.812Z,102468.83
2018-05-06T13:49:54.290Z,102460.97
2018-05-06T13:52:57.617Z,102460.42
2018-05-06T13:56:00.938Z,102463.45
2018-05-06T13:59:04.325Z,102461.41
2018-05-06T14:02:07.724Z,102465.19
2018-05-06T14:05:11.118Z,102467.48
2018-05-06T14:08:14.440Z,102471.91
2018-05-06T14:11:17.810Z,102479.33
2018-05-06T14:14:21.135Z,102472.53
2018-05-06T14:17:24.483Z,102465.52
2018-05-06T14:20:27.824Z,102468.90
2018-05-06T14:23:31.168Z,102461.31
2018-05-06T14:26:34.506Z,102463.32
2018-05-06T14:29:37.900Z,102455.07
2018-05-06T14:32:41.312Z,102446.39
2018-05-06T14:35:44.714Z,102445.03
2018-05-06T14:38:48.098Z,102441.88
2018-05-06T14:41:52.448Z,102444.45
2018-05-06T14:44:57.282Z,102436.39
2018-05-06T14:48:15.636Z,102428.68
2018-05-06T14:51:19.072Z,102429.59
2018-05-06T14:54:22.509Z,102421.13
2018-05-06T14:57:25.835Z,102418.53
2018-05-06T15:00:29.213Z,102419.02
2018-05-06T15:03:32.620Z,102415.55
2018-05-06T15:06:35.967Z,102414.22
2018-05-06T15:09:39.295Z,102409.95
2018-05-06T15:12:42.663Z,102407.04
2018-05-06T15:15:46.026Z,102405.66
2018-05-06T15:18:49.376Z,102408.56
2018-05-06T15:21:52.690Z,102402.67
2018-05-06T15:24:56.039Z,102396.60
2018-05-06T15:28:00.125Z,102397.11
2018-05-06T15:31:03.493Z,102394.12
2018-05-06T15:34:06.818Z,102390.18
2018-05-06T15:37:10.170Z,102384.91
2018-05-06T15:40:13.570Z,102386.24
2018-05-06T15:43:17.041Z,102383.60
2018-05-06T15:46:20.418Z,102381.85
2018-05-06T15:49:23.749Z,102380.07
2018-05-06T15:52:27.838Z,102381.84
2018-05-06T15:55:31.184Z,102376.55
2018-05-06T15:58:34.526Z,102380.11
2018-05-06T16:01:37.945Z,102371.29
2018-05-06T16:04:41.270Z,102368.65
2018-05-06T16:07:45.394Z,102370.38
2018-05-06T16:10:49.480Z,102366.86
2018-05-06T16:13:52.867Z,102366.42
2018-05-06T16:16:56.207Z,102361.59
2018-05-06T16:19:59.562Z,102355.41
2018-05-06T16:23:02.989Z,102347.92
2018-05-06T16:26:07.582Z,102345.23
2018-05-06T16:29:10.896Z,102339.92
2018-05-06T16:32:14.233Z,102338.14
2018-05-06T16:35:18.305Z,102334.19
2018-05-06T16:38:21.658Z,102324.87
2018-05-06T16:41:25.037Z,102317.86
2018-05-06T16:44:29.149Z,102323.11
2018-05-06T16:47:33.229Z,102316.95
2018-05-06T16:50:36.685Z,102317.84
2018-05-06T16:53:40.068Z,102316.81
2018-05-06T16:56:44.251Z,102313.68
2018-05-06T16:59:47.566Z,102309.27
2018-05-06T17:02:50.968Z,102317.73
2018-05-06T17:05:54.307Z,102306.81
2018-05-06T17:08:57.752Z,102314.83
2018-05-06T17:12:01.170Z,102307.69
2018-05-06T17:15:04.564Z,102309.91
2018-05-06T17:18:07.887Z,102309.52
2018-05-06T17:21:12.015Z,102310.42
2018-05-06T17:24:15.368Z,102308.63
2018-05-06T17:27:18.795Z,102306.91
2018-05-06T17:30:22.966Z,102310.34
2018-05-06T17:33:26.343Z,102314.48
2018-05-06T17:36:29.688Z,102312.25
2018-05-06T17:39:33.188Z,102316.64
2018-05-06T17:42:36.597Z,102312.36
2018-05-06T17:45:39.964Z,102310.72
2018-05-06T17:48:43.330Z,102312.53
2018-05-06T17:51:46.802Z,102305.19
2018-05-06T17:54:50.135Z,102306.31
2018-05-06T17:57:53.584Z,102301.31
2018-05-06T18:00:56.937Z,102304.61
2018-05-06T18:04:00.300Z,102305.73
2018-05-06T18:07:03.627Z,102310.38
2018-05-06T18:10:07.098Z,102308.09
2018-05-06T18:13:10.440Z,102306.63
2018-05-06T18:16:13.809Z,102309.11
2018-05-06T18:19:18.278Z,102305.00
2018-05-06T18:22:21.617Z,102305.71
2018-05-06T18:25:25.031Z,102312.92
2018-05-06T18:28:29.515Z,102307.36
2018-05-06T18:31:32.828Z,102309.21
2018-05-06T18:34:37.713Z,102311.02
2018-05-06T18:37:41.035Z,102315.52
2018-05-06T18:40:44.410Z,102321.39
2018-05-06T18:43:47.746Z,102311.95
2018-05-06T18:46:51.124Z,102307.34
2018-05-06T18:49:54.505Z,102309.70
2018-05-06T18:52:57.964Z,102306.02
2018-05-06T18:56:01.304Z,102301.89
2018-05-06T18:59:04.767Z,102302.64
2018-05-06T19:02:08.120Z,102303.33
2018-05-06T19:05:11.484Z,102307.48
2018-05-06T19:08:15.682Z,102307.63
2018-05-06T19:11:19.170Z,102305.09
2018-05-06T19:14:22.502Z,102308.66
2018-05-06T19:17:26.616Z,102303.98
2018-05-06T19:20:30.820Z,102308.00
2018-05-06T19:23:34.183Z,102307.83
2018-05-06T19:26:37.542Z,102303.25
2018-05-06T19:29:41.866Z,102305.63
2018-05-06T19:32:45.166Z,102304.53
2018-05-06T19:35:48.492Z,102308.70
2018-05-06T19:38:51.984Z,102308.06
2018-05-06T19:41:55.363Z,102301.02
2018-05-06T19:44:59.461Z,102304.34
2018-05-06T19:48:02.818Z,102300.77
2018-05-06T19:51:06.150Z,102309.76
2018-05-06T19:54:09.753Z,102312.44
2018-05-06T19:57:13.110Z,102310.34
2018-05-06T20:00:16.467Z,102311.64
2018-05-06T20:03:19.838Z,102309.47
2018-05-06T20:06:23.239Z,102307.66
2018-05-06T20:09:26.577Z,102307.71
2018-05-06T20:12:30.690Z,102310.92
2018-05-06T20:15:35.283Z,102300.47
2018-05-06T20:18:39.129Z,102305.70
2018-05-06T20:21:43.615Z,102303.96
2018-05-06T20:24:47.839Z,102307.52
2018-05-06T20:27:51.251Z,102305.00
2018-05-06T20:30:54.623Z,102302.03
2018-05-06T20:33:57.945Z,102302.38
2018-05-06T20:37:01.352Z,102301.37
2018-05-06T20:40:04.730Z,102299.52
2018-05-06T20:43:08.072Z,102302.41
2018-05-06T20:46:12.312Z,102305.19
2018-05-06T20:49:15.665Z,102306.78
2018-05-06T20:52:19.764Z,102304.94
2018-05-06T20:55:23.214Z,102302.45
2018-05-06T20:58:26.510Z,102298.81
2018-05-06T21:01:30.639Z,102297.75
2018-05-06T21:04:33.952Z,102293.57
2018-05-06T21:07:37.374Z,102293.33
2018-05-06T21:10:40.691Z,102289.68
2018-05-06T21:13:44.048Z,102283.50
2018-05-06T21:16:47.363Z,102280.73
2018-05-06T21:19:50.765Z,102286.80
2018-05-06T21:22:54.296Z,102278.11
2018-05-06T21:25:57.731Z,102278.92
2018-05-06T21:29:01.054Z,102283.62
2018-05-06T21:32:04.406Z,102288.26
2018-05-06T21:35:08.497Z,102289.92
2018-05-06T21:38:11.849Z,102282.81
2018-05-06T21:41:15.157Z,102282.36
2018-05-06T21:44:18.585Z,102284.52
2018-05-06T21:47:21.998Z,102279.33
2018-05-06T21:50:25.348Z,102280.63
2018-05-06T21:53:28.677Z,102283.59
2018-05-06T21:56:32.039Z,102274.45
2018-05-06T21:59:35.365Z,102276.99
2018-05-06T22:02:38.736Z,102279.08
2018-05-06T22:05:42.062Z,102278.08
2018-05-06T22:08:45.403Z,102282.28
2018-05-06T22:11:48.806Z,102281.77
2018-05-06T22:14:53.016Z,102282.55
2018-05-06T22:17:56.415Z,102272.09
2018-05-06T22:20:59.828Z,102280.69
2018-05-06T22:24:03.928Z,102278.98
2018-05-06T22:27:07.342Z,102273.73
2018-05-06T22:30:10.666Z,102269.20
2018-05-06T22:33:14.004Z,102277.30
2018-05-06T22:36:17.409Z,102269.75
2018-05-06T22:39:20.934Z,102271.70
2018-05-06T22:42:24.327Z,102264.12
2018-05-06T22:45:27.665Z,102261.44
2018-05-06T22:48:31.016Z,102262.29
2018-05-06T22:51:34.436Z,102265.33
2018-05-06T22:54:37.833Z,102260.45
2018-05-06T22:57:41.176Z,102257.23
2018-05-06T23:00:44.536Z,102252.96
2018-05-06T23:03:47.963Z,102248.19
2018-05-06T23:06:51.299Z,102245.97
2018-05-06T23:09:54.728Z,102251.26
2018-05-06T23:12:58.840Z,102252.27
2018-05-06T23:16:02.189Z,102242.09
2018-05-06T23:19:05.651Z,102243.19
2018-05-06T23:22:09.770Z,102239.91
2018-05-06T23:25:13.198Z,102241.98
2018-05-06T23:28:16.556Z,102241.07
2018-05-06T23:31:19.904Z,102240.00
2018-05-06T23:34:23.277Z,102240.19
2018-05-06T23:37:27.392Z,102242.95
2018-05-06T23:40:31.498Z,102240.58
2018-05-06T23:43:34.875Z,102241.22
2018-05-06T23:46:38.288Z,102233.19
2018-05-06T23:49:41.726Z,102231.63
2018-05-06T23:52:45.911Z,102234.93
2018-05-06T23:55:49.314Z,102235.52
2018-05-06T23:58:52.644Z,102236.59
